createdAt,value
2022-09-13T00:03:57.668Z,96095.00
2022-09-13T00:08:02.205Z,96093.00
2022-09-13T00:12:35.904Z,96083.00
2022-09-13T00:16:39.032Z,96086.00
2022-09-13T00:20:42.289Z,96078.00
2022-09-13T00:24:47.014Z,96086.00
2022-09-13T00:28:51.931Z,96086.00
2022-09-13T00:33:25.999Z,96073.00
2022-09-13T00:37:29.082Z,96071.00
2022-09-13T00:41:33.751Z,96063.00
2022-09-13T00:45:37.155Z,96062.00
2022-09-13T00:49:42.335Z,96055.00
2022-09-13T00:53:48.811Z,96061.00
2022-09-13T00:58:22.566Z,96060.00
2022-09-13T01:02:28.709Z,96059.00
2022-09-13T01:06:34.810Z,96045.00
2022-09-13T01:10:40.382Z,96043.00
2022-09-13T01:14:44.830Z,96057.00
2022-09-13T01:19:25.998Z,96051.00
2022-09-13T01:24:06.807Z,96046.00
2022-09-13T01:28:40.447Z,96045.00
2022-09-13T01:33:24.409Z,96050.00
2022-09-13T01:37:48.102Z,96049.00
2022-09-13T01:42:02.497Z,96036.00
2022-09-13T01:46:07.491Z,96027.00
2022-09-13T01:50:17.190Z,96026.00
2022-09-13T01:54:26.086Z,96024.00
2022-09-13T01:58:58.334Z,96021.00
2022-09-13T02:03:07.200Z,96026.00
2022-09-13T02:07:15.422Z,96035.00
2022-09-13T02:11:21.055Z,96037.00
2022-09-13T02:20:46.231Z,96039.00
2022-09-13T02:24:56.995Z,96034.00
2022-09-13T02:29:03.321Z,96043.00
2022-09-13T02:33:11.208Z,96041.00
2022-09-13T02:37:14.853Z,96042.00
2022-09-13T02:41:27.891Z,96038.00
2022-09-13T02:45:34.921Z,96039.00
2022-09-13T02:49:51.794Z,96050.00
2022-09-13T02:54:24.356Z,96043.00
2022-09-13T02:58:35.624Z,96052.00
2022-09-13T03:02:41.060Z,96038.00
2022-09-13T03:07:15.124Z,96033.00
2022-09-13T03:11:31.170Z,96014.00
2022-09-13T03:15:48.854Z,96007.00
2022-09-13T03:20:07.157Z,95997.00
2022-09-13T03:24:39.184Z,95982.00
2022-09-13T03:28:54.995Z,95982.00
2022-09-13T03:33:08.421Z,95976.00
2022-09-13T03:37:35.136Z,95987.00
2022-09-13T03:41:43.424Z,95972.00
2022-09-13T03:45:50.448Z,95984.00
2022-09-13T03:49:58.255Z,95991.00
2022-09-13T03:54:04.883Z,95998.00
2022-09-13T03:58:35.336Z,95995.00
2022-09-13T04:02:38.393Z,96001.00
2022-09-13T04:06:43.180Z,95991.00
2022-09-13T04:10:46.211Z,95994.00
2022-09-13T04:14:49.409Z,95984.00
2022-09-13T04:18:52.389Z,95978.00
2022-09-13T04:22:57.965Z,95995.00
2022-09-13T04:27:31.892Z,95989.00
2022-09-13T04:31:35.078Z,96007.00
2022-09-13T04:35:39.236Z,96004.00
2022-09-13T04:40:13.274Z,96009.00
2022-09-13T04:44:18.900Z,96003.00
2022-09-13T04:48:21.968Z,95999.00
2022-09-13T04:52:25.230Z,96004.00
2022-09-13T04:56:28.685Z,96010.00
2022-09-13T05:00:34.166Z,96023.00
2022-09-13T05:04:37.215Z,96011.00
2022-09-13T05:08:40.483Z,96002.00
2022-09-13T05:13:14.156Z,96008.00
2022-09-13T05:17:18.730Z,95998.00
2022-09-13T05:21:22.562Z,96006.00
2022-09-13T05:25:56.865Z,96003.00
2022-09-13T05:29:59.884Z,96010.00
2022-09-13T05:34:07.394Z,96016.00
2022-09-13T05:38:10.431Z,96017.00
2022-09-13T05:42:47.385Z,96018.00
2022-09-13T05:46:50.413Z,96016.00
2022-09-13T05:50:58.128Z,96021.00
2022-09-13T05:55:01.680Z,96015.00
2022-09-13T05:59:04.897Z,96017.00
2022-09-13T06:03:07.952Z,96021.00
2022-09-13T06:07:14.213Z,96017.00
2022-09-13T06:11:47.826Z,96013.00
2022-09-13T06:15:50.974Z,96002.00
2022-09-13T06:19:54.011Z,96005.00
2022-09-13T06:23:58.713Z,95982.00
2022-09-13T06:28:01.705Z,95984.00
2022-09-13T06:32:05.345Z,95990.00
2022-09-13T06:36:10.280Z,95995.00
2022-09-13T06:40:46.950Z,96016.00
2022-09-13T06:44:51.420Z,96013.00
2022-09-13T06:48:55.445Z,96020.00
2022-09-13T06:52:58.600Z,96016.00
2022-09-13T06:57:35.299Z,96013.00
2022-09-13T07:01:41.343Z,96016.00
2022-09-13T07:05:44.444Z,96004.00
2022-09-13T07:09:47.536Z,96012.00
2022-09-13T07:14:24.485Z,96021.00
2022-09-13T07:18:28.867Z,96022.00
2022-09-13T07:22:31.853Z,96016.00
2022-09-13T07:27:08.486Z,96020.00
2022-09-13T07:31:13.504Z,96028.00
2022-09-13T07:35:18.250Z,96015.00
2022-09-13T07:39:51.983Z,96006.00
2022-09-13T07:43:55.429Z,96011.00
2022-09-13T07:48:33.372Z,96024.00
2022-09-13T07:52:38.188Z,96018.00
2022-09-13T07:56:42.312Z,96032.00
2022-09-13T08:01:15.913Z,96034.00
2022-09-13T08:05:18.994Z,96041.00
2022-09-13T08:09:23.403Z,96046.00
2022-09-13T08:13:26.647Z,96043.00
2022-09-13T08:17:30.366Z,96042.00
2022-09-13T08:21:35.245Z,96038.00
2022-09-13T08:25:40.800Z,96033.00
2022-09-13T08:30:14.788Z,96026.00
2022-09-13T08:34:18.245Z,96028.00
2022-09-13T08:38:21.299Z,96028.00
2022-09-13T08:43:04.119Z,96030.00
2022-09-13T08:47:27.862Z,96027.00
2022-09-13T08:51:36.607Z,96018.00
2022-09-13T08:55:48.954Z,96014.00
2022-09-13T09:00:00.569Z,96005.00
2022-09-13T09:04:13.490Z,96010.00
2022-09-13T09:08:31.323Z,96017.00
2022-09-13T09:12:55.117Z,96000.00
2022-09-13T09:17:04.180Z,96005.00
2022-09-13T09:21:14.009Z,96007.00
2022-09-13T09:25:41.523Z,96016.00
2022-09-13T09:29:46.308Z,96026.00
2022-09-13T09:34:09.157Z,96030.00
2022-09-13T09:38:34.264Z,96028.00
2022-09-13T09:42:42.866Z,96021.00
2022-09-13T09:46:50.263Z,96006.00
2022-09-13T09:50:58.360Z,96009.00
2022-09-13T09:55:30.305Z,95999.00
2022-09-13T09:59:34.470Z,95999.00
2022-09-13T10:03:37.493Z,95989.00
2022-09-13T10:08:26.184Z,95986.00
2022-09-13T10:12:32.546Z,95989.00
2022-09-13T10:16:35.625Z,95989.00
2022-09-13T10:21:22.840Z,95986.00
2022-09-13T10:25:28.053Z,95996.00
2022-09-13T10:29:32.027Z,95987.00
2022-09-13T10:33:38.233Z,95991.00
2022-09-13T10:37:45.512Z,96006.00
2022-09-13T10:41:54.965Z,96003.00
2022-09-13T10:45:59.762Z,95990.00
2022-09-13T10:50:21.767Z,95993.00
2022-09-13T10:54:25.599Z,95979.00
2022-09-13T10:58:30.396Z,95964.00
2022-09-13T11:03:00.535Z,95971.00
2022-09-13T11:07:16.611Z,95974.00
2022-09-13T11:11:27.534Z,95965.00
2022-09-13T11:15:41.546Z,95954.00
2022-09-13T11:20:07.033Z,95959.00
2022-09-13T11:24:40.429Z,95962.00
2022-09-13T11:28:52.434Z,95962.00
2022-09-13T11:33:29.019Z,95953.00
2022-09-13T11:37:42.788Z,95954.00
2022-09-13T11:41:59.033Z,95932.00
2022-09-13T11:46:28.390Z,95924.00
2022-09-13T11:50:45.853Z,95923.00
2022-09-13T11:55:04.380Z,95928.00
2022-09-13T11:59:20.078Z,95932.00
2022-09-13T12:03:49.096Z,95946.00
2022-09-13T12:07:59.066Z,95946.00
2022-09-13T12:12:06.694Z,95938.00
2022-09-13T12:16:14.101Z,95949.00
2022-09-13T12:20:22.996Z,95967.00
2022-09-13T12:24:41.759Z,95956.00
2022-09-13T12:28:50.438Z,95940.00
2022-09-13T12:33:21.461Z,95952.00
2022-09-13T12:37:39.742Z,95967.00
2022-09-13T12:41:53.357Z,95954.00
2022-09-13T12:46:28.091Z,95956.00
2022-09-13T12:50:48.313Z,95948.00
2022-09-13T12:55:46.805Z,95945.00
2022-09-13T13:00:02.648Z,95928.00
2022-09-13T13:04:26.824Z,95936.00
2022-09-13T13:08:31.394Z,95949.00
2022-09-13T13:12:37.183Z,95941.00
2022-09-13T13:16:41.663Z,95928.00
2022-09-13T13:21:05.285Z,95917.00
2022-09-13T13:25:33.377Z,95923.00
2022-09-13T13:29:36.734Z,95934.00
2022-09-13T13:34:16.956Z,95919.00
2022-09-13T13:38:48.947Z,95908.00
2022-09-13T13:42:52.795Z,95913.00
2022-09-13T13:47:16.356Z,95903.00
2022-09-13T13:52:13.934Z,95905.00
2022-09-13T13:56:47.964Z,95895.00
2022-09-13T14:00:54.200Z,95901.00
2022-09-13T14:05:31.847Z,95893.00
2022-09-13T14:09:41.112Z,95888.00
2022-09-13T14:13:58.185Z,95885.00
2022-09-13T14:18:39.427Z,95884.00
2022-09-13T14:22:45.091Z,95881.00
2022-09-13T14:26:49.642Z,95876.00
2022-09-13T14:31:24.959Z,95868.00
2022-09-13T14:35:30.743Z,95875.00
2022-09-13T14:39:33.986Z,95881.00
2022-09-13T14:44:18.854Z,95865.00
2022-09-13T14:48:31.731Z,95877.00
2022-09-13T14:52:37.759Z,95866.00
2022-09-13T14:56:43.752Z,95863.00
2022-09-13T15:00:52.554Z,95867.00
2022-09-13T15:04:59.241Z,95859.00
2022-09-13T15:09:34.171Z,95847.00
2022-09-13T15:13:37.993Z,95850.00
2022-09-13T15:17:54.105Z,95842.00
2022-09-13T15:22:16.511Z,95839.00
2022-09-13T15:26:31.585Z,95833.00
2022-09-13T15:30:41.790Z,95835.00
2022-09-13T15:35:18.704Z,95834.00
2022-09-13T15:39:23.395Z,95833.00
2022-09-13T15:43:26.527Z,95827.00
2022-09-13T15:47:29.791Z,95828.00
2022-09-13T15:52:06.774Z,95841.00
2022-09-13T15:56:16.831Z,95831.00
2022-09-13T16:00:22.067Z,95833.00
2022-09-13T16:04:56.280Z,95830.00
2022-09-13T16:09:00.425Z,95814.00
2022-09-13T16:13:05.395Z,95817.00
2022-09-13T16:17:12.681Z,95814.00
2022-09-13T16:21:43.947Z,95817.00
2022-09-13T16:25:47.815Z,95813.00
2022-09-13T16:29:52.201Z,95825.00
2022-09-13T16:33:55.671Z,95816.00
2022-09-13T16:37:58.853Z,95806.00
2022-09-13T16:42:01.907Z,95809.00
2022-09-13T16:46:10.050Z,95816.00
2022-09-13T16:50:13.123Z,95807.00
2022-09-13T16:54:16.238Z,95811.00
2022-09-13T16:58:53.566Z,95808.00
2022-09-13T17:02:58.322Z,95803.00
2022-09-13T17:07:02.712Z,95812.00
2022-09-13T17:11:07.770Z,95804.00
2022-09-13T17:15:44.903Z,95802.00
2022-09-13T17:19:49.539Z,95787.00
2022-09-13T17:23:53.234Z,95791.00
2022-09-13T17:27:56.319Z,95798.00
2022-09-13T17:31:59.969Z,95788.00
2022-09-13T17:36:07.531Z,95788.00
2022-09-13T17:40:10.797Z,95787.00
2022-09-13T17:44:47.930Z,95792.00
2022-09-13T17:48:52.303Z,95791.00
2022-09-13T17:52:56.962Z,95792.00
2022-09-13T17:57:00.438Z,95789.00
2022-09-13T18:01:37.624Z,95778.00
2022-09-13T18:05:40.697Z,95776.00
2022-09-13T18:09:45.402Z,95776.00
2022-09-13T18:13:49.086Z,95767.00
2022-09-13T18:17:52.114Z,95761.00
2022-09-13T18:21:55.312Z,95763.00
2022-09-13T18:26:29.150Z,95763.00
2022-09-13T18:30:33.650Z,95764.00
2022-09-13T18:34:36.697Z,95769.00
2022-09-13T18:39:13.175Z,95759.00
2022-09-13T18:43:16.269Z,95764.00
2022-09-13T18:47:20.690Z,95757.00
2022-09-13T18:51:26.287Z,95755.00
2022-09-13T18:56:03.770Z,95757.00
2022-09-13T19:00:08.257Z,95756.00
2022-09-13T19:04:15.176Z,95749.00
2022-09-13T19:08:49.852Z,95756.00
2022-09-13T19:12:52.909Z,95758.00
2022-09-13T19:17:00.533Z,95759.00
2022-09-13T19:21:33.358Z,95758.00
2022-09-13T19:25:36.453Z,95768.00
2022-09-13T19:29:39.649Z,95758.00
2022-09-13T19:34:17.647Z,95754.00
2022-09-13T19:38:22.119Z,95757.00
2022-09-13T19:42:25.551Z,95756.00
2022-09-13T19:51:26.991Z,95760.00
2022-09-13T19:55:33.148Z,95773.00
2022-09-13T20:00:07.641Z,95767.00
2022-09-13T20:04:12.874Z,95775.00
2022-09-13T20:08:16.179Z,95767.00
2022-09-13T20:12:24.097Z,95759.00
2022-09-13T20:16:28.854Z,95765.00
2022-09-13T20:20:31.925Z,95748.00
2022-09-13T20:24:34.932Z,95754.00
2022-09-13T20:28:39.781Z,95743.00
2022-09-13T20:32:43.134Z,95738.00
2022-09-13T20:37:20.062Z,95746.00
2022-09-13T20:41:23.288Z,95746.00
2022-09-13T20:45:27.890Z,95747.00
2022-09-13T20:49:30.988Z,95746.00
2022-09-13T20:53:34.768Z,95730.00
2022-09-13T20:57:38.231Z,95745.00
2022-09-13T21:01:42.700Z,95732.00
2022-09-13T21:05:45.768Z,95737.00
2022-09-13T21:09:48.907Z,95734.00
2022-09-13T21:14:21.961Z,95732.00
2022-09-13T21:18:26.343Z,95735.00
2022-09-13T21:22:29.462Z,95735.00
2022-09-13T21:26:33.580Z,95726.00
2022-09-13T21:30:36.721Z,95730.00
2022-09-13T21:34:41.192Z,95731.00
2022-09-13T21:38:44.544Z,95732.00
2022-09-13T21:43:18.339Z,95726.00
2022-09-13T21:47:21.364Z,95727.00
2022-09-13T21:51:27.131Z,95721.00
2022-09-13T21:55:31.445Z,95716.00
2022-09-13T21:59:34.446Z,95711.00
2022-09-13T22:04:13.172Z,95710.00
2022-09-13T22:08:17.590Z,95715.00
2022-09-13T22:12:23.162Z,95710.00
2022-09-13T22:16:28.439Z,95721.00
2022-09-13T22:20:31.541Z,95707.00
2022-09-13T22:25:10.608Z,95698.00
2022-09-13T22:29:13.877Z,95707.00
2022-09-13T22:33:16.907Z,95704.00
2022-09-13T22:37:19.949Z,95705.00
2022-09-13T22:41:26.274Z,95709.00
2022-09-13T22:46:03.267Z,95701.00
2022-09-13T22:50:07.146Z,95706.00
2022-09-13T22:54:10.139Z,95718.00
2022-09-13T22:58:15.069Z,95718.00
2022-09-13T23:02:18.142Z,95718.00
2022-09-13T23:06:55.040Z,95706.00
2022-09-13T23:10:58.292Z,95700.00
2022-09-13T23:15:02.747Z,95708.00
2022-09-13T23:19:06.457Z,95702.00
2022-09-13T23:23:10.949Z,95700.00
2022-09-13T23:27:44.302Z,95690.00
2022-09-13T23:31:49.150Z,95691.00
2022-09-13T23:35:58.648Z,95684.00
2022-09-13T23:40:01.861Z,95680.00
2022-09-13T23:44:05.766Z,95670.00
2022-09-13T23:48:10.294Z,95657.00
2022-09-13T23:52:47.033Z,95671.00
2022-09-13T23:56:50.152Z,95681.00
